Terminal Aerodrome Forecast
Issued by NWS Albany, NY

Home | Current Version | Previous Version | Text Only | Print | Product List | Glossary On
Versions: 1 2 3 4 5 6 7 8 9 10 11 12 13 14 15 16 17 18 19 20 21 22 23 24
000
FTUS41 KALY 012000 AAD
TAFGFL
TAF AMD
KGFL 012004Z 0120/0218 05004KT P6SM VCSH OVC035
      TEMPO 0121/0124 OVC030
     FM020000 VRB03KT P6SM BKN030 OVC050
     FM020600 VRB03KT 3SM BR OVC025
     FM020900 VRB03KT 2SM BR OVC015
     FM021500 06005KT P6SM OVC025=

USA.gov is the U.S. government's official web portal to all federal, state and local government web resources and services.